Time;durP1;ratioP1;P1;durP2;ratioP2;P2;SDS_P1;SDS_P2;PMS_P1;PMS_P2;Temp;Humidity;BMP_temperature;BMP_pressure;BME280_temperature;BME280_humidity;BME280_pressure;Samples;Min_cycle;Max_cycle;Signal;HPM_P1;HPM_P2
2024/03/03 00:02:23;;;;;;;61.97;27.88;;;;;;;-2.10;64.22;101473.41;4978643;28;20081;-74
2024/03/03 00:04:49;;;;;;;59.53;26.83;;;;;;;-2.48;64.69;101403.66;4944126;28;20504;-74
2024/03/03 00:07:16;;;;;;;52.92;25.42;;;;;;;-2.74;64.16;101361.94;4974113;28;20038;-75
2024/03/03 00:09:45;;;;;;;50.15;24.83;;;;;;;-2.14;64.46;101479.97;4992422;28;20072;-74
2024/03/03 00:12:11;;;;;;;55.38;25.75;;;;;;;-2.15;64.00;101490.97;4955584;28;20053;-75
2024/03/03 00:14:37;;;;;;;52.92;24.13;;;;;;;-2.24;64.27;101484.34;4973162;28;20113;-76
2024/03/03 00:17:04;;;;;;;37.65;17.88;;;;;;;-2.64;64.30;101426.31;4977089;28;20924;-75
2024/03/03 00:19:30;;;;;;;41.08;17.80;;;;;;;-2.34;64.39;101483.66;4995711;28;20069;-75
2024/03/03 00:21:56;;;;;;;39.72;18.98;;;;;;;-2.42;64.76;101466.94;4959505;28;20038;-77
2024/03/03 00:24:22;;;;;;;41.13;16.95;;;;;;;-2.82;64.27;101408.03;4943164;28;20065;-75
2024/03/03 00:26:49;;;;;;;35.53;17.33;;;;;;;-3.01;64.71;101381.25;4977049;28;20476;-75
2024/03/03 00:29:15;;;;;;;36.15;16.33;;;;;;;-2.86;64.56;101384.03;4994962;28;20046;-75
2024/03/03 00:31:43;;;;;;;31.85;15.00;;;;;;;-2.71;63.98;101435.19;4994471;28;20583;-72
2024/03/03 00:34:09;;;;;;;32.88;14.65;;;;;;;-2.59;64.42;101460.66;4970691;28;20081;-72
2024/03/03 00:36:38;;;;;;;30.40;14.77;;;;;;;-2.75;64.63;101440.84;4948584;28;20034;-72
2024/03/03 00:39:04;;;;;;;31.00;15.60;;;;;;;-2.91;64.93;101403.19;4959913;28;20054;-72
2024/03/03 00:41:30;;;;;;;27.48;14.45;;;;;;;-3.07;64.60;101384.25;4967127;28;20652;-73
2024/03/03 00:43:56;;;;;;;32.83;14.95;;;;;;;-2.66;64.68;101466.09;4993669;28;20042;-74
2024/03/03 00:46:22;;;;;;;30.85;15.07;;;;;;;-2.69;64.89;101474.41;4970657;28;20475;-73
2024/03/03 00:48:51;;;;;;;37.40;15.77;;;;;;;-2.59;64.81;101487.03;4960134;28;20131;-73
2024/03/03 00:51:17;;;;;;;38.53;16.38;;;;;;;-2.57;65.25;101482.94;4974436;28;20045;-71
2024/03/03 00:53:43;;;;;;;38.45;18.88;;;;;;;-2.83;64.71;101419.00;4958600;28;20035;-72
2024/03/03 00:56:09;;;;;;;46.50;19.50;;;;;;;-2.53;64.41;101485.69;4947945;28;20050;-72
2024/03/03 00:58:35;;;;;;;48.65;21.63;;;;;;;-3.10;64.12;101419.69;4950303;28;20084;-72
2024/03/03 01:01:01;;;;;;;52.88;25.35;;;;;;;-3.14;63.88;101417.69;4982500;28;20053;-73
2024/03/03 01:03:29;;;;;;;63.83;29.45;;;;;;;-3.55;64.23;101350.28;4977498;28;20042;-73
2024/03/03 01:05:56;;;;;;;61.58;29.33;;;;;;;-3.15;64.79;101415.06;4961564;28;20448;-72
2024/03/03 01:08:22;;;;;;;60.58;26.70;;;;;;;-2.92;64.51;101471.09;4979197;28;20420;-73
2024/03/03 01:10:49;;;;;;;52.80;24.20;;;;;;;-3.15;64.48;101436.31;4950166;28;20053;-73
2024/03/03 01:13:15;;;;;;;50.50;21.92;;;;;;;-3.50;65.03;101370.97;4961038;28;20064;-73
2024/03/03 01:15:41;;;;;;;45.35;21.85;;;;;;;-3.07;64.83;101441.94;4971575;28;20120;-74
2024/03/03 01:18:07;;;;;;;45.22;22.58;;;;;;;-2.87;65.36;101471.44;4966016;28;20076;-73
2024/03/03 01:20:33;;;;;;;39.28;19.08;;;;;;;-2.92;64.97;101460.00;4979107;28;20046;-74
2024/03/03 01:22:59;;;;;;;50.33;24.25;;;;;;;-2.91;64.81;101459.22;4999164;28;21225;-72
2024/03/03 01:25:26;;;;;;;49.53;20.65;;;;;;;-3.07;64.82;101432.66;5000474;28;20042;-72
2024/03/03 01:27:52;;;;;;;41.45;19.25;;;;;;;-2.89;64.37;101481.53;4990527;28;20042;-72
2024/03/03 01:30:19;;;;;;;40.00;18.52;;;;;;;-3.65;64.39;101392.00;4951075;28;20042;-73
2024/03/03 01:32:44;;;;;;;44.67;19.25;;;;;;;-3.14;65.02;101494.09;4951085;28;20100;-73
2024/03/03 01:35:11;;;;;;;40.08;18.35;;;;;;;-3.41;64.54;101448.00;4981064;28;20041;-73
2024/03/03 01:37:37;;;;;;;38.97;17.58;;;;;;;-3.21;65.26;101474.06;4982928;28;20119;-73
2024/03/03 01:40:04;;;;;;;35.38;16.67;;;;;;;-3.37;65.73;101429.63;4950744;28;20096;-73
2024/03/03 01:42:30;;;;;;;35.47;16.85;;;;;;;-3.01;65.29;101488.25;4977210;28;20038;-74
2024/03/03 01:44:56;;;;;;;45.50;19.48;;;;;;;-3.26;64.74;101430.44;4977272;28;20034;-72
2024/03/03 01:47:22;;;;;;;41.17;18.95;;;;;;;-3.37;64.55;101436.41;4950057;28;20034;-72
2024/03/03 01:49:52;;;;;;;41.20;19.67;;;;;;;-3.57;64.47;101422.19;4965917;28;20066;-71
2024/03/03 01:52:19;;;;;;;37.58;16.75;;;;;;;-3.66;64.29;101437.66;4964596;28;20037;-72
2024/03/03 01:54:45;;;;;;;52.13;22.70;;;;;;;-3.46;64.81;101469.72;4979429;28;20042;-71
2024/03/03 01:57:18;;;;;;;44.33;17.65;;;;;;;-3.42;64.44;101492.06;4967507;28;20045;-72
2024/03/03 01:59:45;;;;;;;41.95;19.40;;;;;;;-3.39;65.34;101499.91;4960506;28;20039;-74
2024/03/03 02:02:11;;;;;;;52.45;17.77;;;;;;;-3.22;65.06;101524.09;5002405;28;20034;-74
2024/03/03 02:04:38;;;;;;;35.17;15.93;;;;;;;-3.22;65.35;101533.41;4981436;28;20038;-74
2024/03/03 02:07:07;;;;;;;36.08;15.80;;;;;;;-3.74;64.51;101460.00;4965560;28;20042;-74
2024/03/03 02:09:33;;;;;;;32.38;14.77;;;;;;;-3.73;64.88;101466.84;4964391;28;20121;-74
2024/03/03 02:11:59;;;;;;;26.27;13.40;;;;;;;-3.55;65.82;101491.91;4948639;28;20136;-75
2024/03/03 02:14:27;;;;;;;39.38;14.55;;;;;;;-3.20;65.73;101521.69;4946312;28;20065;-76
2024/03/03 02:16:53;;;;;;;25.40;12.30;;;;;;;-3.87;64.58;101449.69;4958968;28;20381;-74
2024/03/03 02:19:20;;;;;;;29.83;12.32;;;;;;;-3.59;64.76;101484.81;4939017;28;20069;-73
2024/03/03 02:21:46;;;;;;;30.73;12.48;;;;;;;-3.40;65.58;101528.69;4955013;28;20046;-74
2024/03/03 02:24:13;;;;;;;26.13;12.98;;;;;;;-3.62;65.67;101475.31;4954990;28;20034;-74
2024/03/03 02:26:39;;;;;;;30.42;13.23;;;;;;;-3.56;65.61;101473.22;4951130;28;20474;-73
2024/03/03 02:29:05;;;;;;;29.48;14.05;;;;;;;-3.37;64.62;101513.66;4976210;28;20561;-71
2024/03/03 02:31:32;;;;;;;28.63;14.45;;;;;;;-3.46;65.34;101513.00;4976823;28;20034;-73
2024/03/03 02:33:58;;;;;;;32.22;15.13;;;;;;;-3.35;65.43;101535.03;4953113;28;20043;-72
2024/03/03 02:36:24;;;;;;;40.40;15.80;;;;;;;-3.45;65.65;101512.22;4959073;28;20077;-72
2024/03/03 02:38:51;;;;;;;31.63;15.02;;;;;;;-3.32;65.77;101514.03;4965209;28;20073;-74
2024/03/03 02:41:17;;;;;;;29.88;14.25;;;;;;;-3.33;64.93;101530.94;4943904;28;20073;-72
2024/03/03 02:43:43;;;;;;;30.40;15.02;;;;;;;-3.93;65.40;101432.25;4968912;28;20054;-72
2024/03/03 02:46:09;;;;;;;29.80;14.02;;;;;;;-3.36;64.76;101540.91;4966822;28;20116;-79
2024/03/03 02:48:35;;;;;;;28.30;12.43;;;;;;;-4.27;64.72;101409.38;4957204;28;20449;-75
2024/03/03 02:51:01;;;;;;;30.67;14.35;;;;;;;-3.54;65.36;101554.78;4954747;28;20405;-73
2024/03/03 02:53:27;;;;;;;31.38;12.38;;;;;;;-4.21;65.18;101445.44;4957150;28;20045;-74
2024/03/03 02:55:53;;;;;;;22.08;10.80;;;;;;;-3.66;64.44;101552.19;4969025;28;20039;-73
2024/03/03 02:58:22;;;;;;;25.65;11.20;;;;;;;-4.16;65.50;101463.59;4958490;28;20031;-72
2024/03/03 03:00:48;;;;;;;26.23;12.23;;;;;;;-3.83;65.14;101515.25;4975433;28;20165;-72
2024/03/03 03:03:14;;;;;;;25.15;11.73;;;;;;;-3.74;65.90;101510.88;4957847;28;20476;-73
2024/03/03 03:05:40;;;;;;;28.65;12.85;;;;;;;-3.76;66.25;101502.25;4944468;28;20564;-73
2024/03/03 03:08:08;;;;;;;35.63;15.32;;;;;;;-3.58;65.91;101507.84;4955381;28;20621;-73
2024/03/03 03:10:34;;;;;;;27.83;14.25;;;;;;;-3.97;65.72;101448.09;4970401;28;20066;-76
2024/03/03 03:13:00;;;;;;;29.60;13.45;;;;;;;-3.28;66.09;101543.13;4976508;28;20085;-75
2024/03/03 03:15:28;;;;;;;28.60;14.77;;;;;;;-3.26;65.78;101549.25;4955574;28;20038;-75
2024/03/03 03:17:55;;;;;;;31.75;13.18;;;;;;;-3.53;65.09;101523.47;4952433;28;20034;-74
2024/03/03 03:20:21;;;;;;;27.70;12.15;;;;;;;-3.51;64.94;101547.38;4951459;28;20106;-72
2024/03/03 03:22:47;;;;;;;29.98;13.13;;;;;;;-3.70;65.64;101529.81;4939281;28;20133;-75
2024/03/03 03:25:13;;;;;;;29.95;13.68;;;;;;;-3.68;66.00;101521.53;4938889;28;20042;-75
2024/03/03 03:27:40;;;;;;;27.08;12.65;;;;;;;-4.02;65.14;101467.19;4947152;28;20050;-76
2024/03/03 03:30:07;;;;;;;25.63;12.43;;;;;;;-3.56;64.76;101557.22;4954250;28;20050;-75
2024/03/03 03:32:33;;;;;;;28.27;12.00;;;;;;;-3.60;65.09;101556.84;4968875;28;20414;-73
2024/03/03 03:34:59;;;;;;;31.90;12.73;;;;;;;-3.68;65.56;101544.44;4962197;28;20137;-73
2024/03/03 03:37:29;;;;;;;30.77;12.48;;;;;;;-3.82;65.85;101517.94;4945241;28;20097;-73
2024/03/03 03:39:56;;;;;;;28.63;13.02;;;;;;;-3.66;66.34;101535.28;4946323;28;20034;-74
2024/03/03 03:42:22;;;;;;;28.85;12.27;;;;;;;-3.59;65.29;101556.09;4953999;28;20053;-73
2024/03/03 03:44:51;;;;;;;27.60;13.50;;;;;;;-3.87;64.76;101543.81;4937882;28;20049;-73
2024/03/03 03:47:17;;;;;;;47.95;21.48;;;;;;;-4.09;64.87;101544.69;4936679;28;20035;-72
2024/03/03 03:49:43;;;;;;;59.47;24.63;;;;;;;-4.25;65.31;101527.31;4922516;28;20038;-73
2024/03/03 03:52:10;;;;;;;64.55;24.90;;;;;;;-4.20;65.58;101554.00;4935029;28;20069;-72
2024/03/03 03:54:36;;;;;;;112.25;43.38;;;;;;;-4.69;65.13;101459.50;4936997;28;20045;-72
2024/03/03 03:57:02;;;;;;;130.18;51.10;;;;;;;-4.72;65.35;101462.69;4923336;28;20043;-72
2024/03/03 03:59:31;;;;;;;130.85;52.50;;;;;;;-4.14;65.73;101561.22;4955324;28;20034;-72
2024/03/03 04:02:00;;;;;;;147.35;56.78;;;;;;;-4.41;66.12;101509.97;4922034;28;20045;-74
2024/03/03 04:04:27;;;;;;;116.32;46.83;;;;;;;-4.12;66.00;101550.38;4936742;28;20173;-72
2024/03/03 04:06:53;;;;;;;89.30;36.30;;;;;;;-4.24;66.56;101522.34;4938076;28;20042;-74
2024/03/03 04:09:19;;;;;;;85.78;34.05;;;;;;;-4.60;65.77;101472.94;4923522;28;20057;-78
2024/03/03 04:11:45;;;;;;;40.88;18.63;;;;;;;-4.37;64.62;101550.13;4939189;28;20072;-77
2024/03/03 04:14:11;;;;;;;41.33;17.67;;;;;;;-4.63;65.77;101489.59;4954127;28;20528;-78
2024/03/03 04:16:38;;;;;;;46.67;19.42;;;;;;;-4.55;66.28;101494.53;4938220;28;20048;-76
2024/03/03 04:19:03;;;;;;;47.40;19.48;;;;;;;-4.59;65.96;101448.41;4955234;28;20593;-76
2024/03/03 04:21:30;;;;;;;53.70;23.83;;;;;;;-3.98;65.91;101550.59;4923299;28;20047;-77
2024/03/03 04:23:56;;;;;;;58.15;25.17;;;;;;;-3.92;65.47;101558.69;4939074;28;20041;-77
2024/03/03 04:26:22;;;;;;;55.75;24.65;;;;;;;-4.02;65.27;101564.72;4922647;28;20098;-76
2024/03/03 04:28:48;;;;;;;60.42;24.90;;;;;;;-3.99;65.08;101571.72;4954664;28;20520;-78
2024/03/03 04:31:14;;;;;;;54.92;25.60;;;;;;;-4.20;65.62;101514.97;4953903;28;20391;-76
2024/03/03 04:33:40;;;;;;;49.65;23.27;;;;;;;-3.85;65.68;101568.59;4938646;28;20078;-76
2024/03/03 04:36:11;;;;;;;53.75;21.13;;;;;;;-3.63;65.39;101590.59;4921110;28;20050;-75
2024/03/03 04:38:40;;;;;;;43.95;19.85;;;;;;;-3.90;65.15;101531.72;4945989;28;20136;-75
2024/03/03 04:41:14;;;;;;;43.67;20.77;;;;;;;-3.84;66.10;101510.94;4950022;28;20138;-74
2024/03/03 04:43:41;;;;;;;40.88;18.00;;;;;;;-3.57;65.47;101488.38;4921865;28;20042;-74
2024/03/03 04:46:08;;;;;;;39.10;17.92;;;;;;;-2.20;65.28;101578.13;4953564;28;20316;-75
2024/03/03 04:48:36;;;;;;;34.88;17.30;;;;;;;-1.52;63.89;101577.75;4921673;28;20043;-74
2024/03/03 04:51:02;;;;;;;42.38;17.88;;;;;;;-1.01;63.96;101570.97;4937714;28;20039;-75
2024/03/03 04:53:28;;;;;;;40.80;17.40;;;;;;;-0.66;65.09;101482.00;4952926;28;20053;-76
2024/03/03 04:55:54;;;;;;;44.53;18.55;;;;;;;0.20;63.98;101477.88;4954227;28;20038;-75
2024/03/03 04:58:23;;;;;;;41.05;17.60;;;;;;;1.70;63.70;101567.63;4923442;28;20069;-76
2024/03/03 05:00:49;;;;;;;33.45;17.27;;;;;;;2.34;63.42;101523.97;4938925;28;20049;-75
2024/03/03 05:03:15;;;;;;;32.28;15.63;;;;;;;3.42;62.54;101541.34;4971455;28;20050;-73
2024/03/03 05:05:41;;;;;;;28.92;13.02;;;;;;;4.59;61.73;101567.22;4944281;28;20034;-72
2024/03/03 05:08:07;;;;;;;26.35;12.45;;;;;;;5.59;60.85;101562.78;4937989;28;20093;-72
2024/03/03 05:10:33;;;;;;;20.63;10.52;;;;;;;6.18;59.48;101503.88;4971581;28;20039;-72
2024/03/03 05:12:59;;;;;;;20.10;10.63;;;;;;;7.23;59.00;101518.66;4937549;28;20359;-74
2024/03/03 05:15:26;;;;;;;20.88;10.25;;;;;;;8.09;56.90;101524.69;4936969;28;20046;-72
2024/03/03 05:17:52;;;;;;;21.23;9.77;;;;;;;8.74;54.88;101483.25;4937959;28;20046;-72
2024/03/03 05:20:17;;;;;;;20.73;8.18;;;;;;;8.87;51.64;101505.19;4953841;28;20490;-73
2024/03/03 05:22:44;;;;;;;28.55;9.80;;;;;;;9.75;52.27;101524.59;4970983;28;20043;-74
2024/03/03 05:25:10;;;;;;;18.67;9.32;;;;;;;10.07;50.24;101503.59;4952368;28;20039;-72
2024/03/03 05:27:36;;;;;;;16.05;8.90;;;;;;;10.60;48.84;101502.00;4952864;28;20078;-72
2024/03/03 05:30:03;;;;;;;17.23;8.73;;;;;;;11.44;47.32;101537.28;4945692;28;20090;-77
2024/03/03 05:32:30;;;;;;;17.98;9.40;;;;;;;12.24;45.48;101527.09;4971443;28;20098;-75
2024/03/03 05:34:56;;;;;;;16.17;9.52;;;;;;;12.69;43.80;101480.53;4939192;28;20066;-76
2024/03/03 05:37:23;;;;;;;17.75;9.15;;;;;;;13.61;42.24;101546.59;4932186;28;20038;-78
2024/03/03 05:39:53;;;;;;;16.38;9.05;;;;;;;13.68;40.21;101483.88;4922536;28;20050;-78
2024/03/03 05:42:22;;;;;;;19.45;9.32;;;;;;;14.09;36.21;101550.34;4956116;28;20409;-77
2024/03/03 05:44:51;;;;;;;20.58;9.80;;;;;;;14.23;38.39;101526.00;4958586;28;20073;-78
2024/03/03 05:47:23;;;;;;;19.08;8.60;;;;;;;15.18;37.30;101541.03;4943593;28;20102;-78
2024/03/03 05:49:50;;;;;;;17.95;8.98;;;;;;;15.93;35.59;101519.91;4942989;28;20042;-77
2024/03/03 05:52:16;;;;;;;19.38;9.15;;;;;;;16.73;34.61;101500.19;4941542;28;20053;-78
2024/03/03 05:54:42;;;;;;;18.70;9.55;;;;;;;17.75;33.41;101537.88;4957571;28;20051;-78
2024/03/03 05:57:11;;;;;;;19.10;8.88;;;;;;;18.18;32.33;101447.81;4931851;28;20050;-80
2024/03/03 05:59:37;;;;;;;15.00;8.85;;;;;;;19.41;31.47;101490.66;4957796;28;20050;-77
2024/03/03 06:02:03;;;;;;;18.80;9.63;;;;;;;20.04;30.05;101482.38;4956672;28;20038;-80
2024/03/03 06:04:29;;;;;;;16.10;9.60;;;;;;;20.57;29.29;101501.41;4973811;28;20041;-77
2024/03/03 06:06:55;;;;;;;18.15;9.63;;;;;;;21.05;27.71;101534.69;4974517;28;20089;-75
2024/03/03 06:09:21;;;;;;;16.67;9.20;;;;;;;21.14;27.91;101538.00;4964398;28;20039;-77
2024/03/03 06:11:52;;;;;;;16.10;8.80;;;;;;;21.72;27.27;101495.88;4939891;28;20038;-75
2024/03/03 06:14:21;;;;;;;17.95;9.50;;;;;;;22.70;25.98;101536.25;4972453;28;20058;-74
2024/03/03 06:16:50;;;;;;;16.52;9.57;;;;;;;23.22;25.16;101540.75;4956669;28;20046;-77
2024/03/03 06:19:17;;;;;;;19.73;11.55;;;;;;;23.59;24.87;101496.06;4962335;28;20089;-76
2024/03/03 06:21:43;;;;;;;24.83;13.07;;;;;;;23.85;24.36;101478.28;4970676;28;20034;-76
2024/03/03 06:24:12;;;;;;;22.30;13.45;;;;;;;24.45;23.68;101488.38;4960662;28;20034;-79
2024/03/03 06:26:41;;;;;;;21.92;13.70;;;;;;;25.04;22.95;101475.34;4965706;28;20100;-76
2024/03/03 06:29:08;;;;;;;20.08;12.13;;;;;;;24.87;22.57;101450.28;4978480;28;20054;-77
2024/03/03 06:31:34;;;;;;;18.65;13.13;;;;;;;25.54;22.17;101544.19;4962142;28;20096;-71
2024/03/03 06:34:01;;;;;;;22.88;13.63;;;;;;;25.91;21.91;101488.34;4962719;28;20133;-73
2024/03/03 06:36:29;;;;;;;15.68;9.82;;;;;;;26.44;21.20;101470.72;4978336;28;20041;-72
2024/03/03 06:38:56;;;;;;;14.60;8.95;;;;;;;26.85;20.40;101532.81;4996052;28;20412;-72
2024/03/03 06:41:22;;;;;;;15.90;9.25;;;;;;;27.03;20.46;101528.34;4977846;28;20038;-75
2024/03/03 06:43:49;;;;;;;16.58;8.98;;;;;;;27.40;20.12;101513.06;4962568;28;20046;-72
2024/03/03 06:46:15;;;;;;;13.13;8.93;;;;;;;27.96;20.02;101523.50;4949351;28;20110;-71
2024/03/03 06:48:41;;;;;;;15.43;9.95;;;;;;;28.59;19.50;101520.88;4996653;28;21007;-77
2024/03/03 06:51:07;;;;;;;15.95;9.05;;;;;;;28.95;19.40;101475.03;4977011;28;20037;-73
2024/03/03 06:53:39;;;;;;;17.20;8.85;;;;;;;29.88;18.64;101514.94;4957378;28;20057;-76
2024/03/03 06:56:17;;;;;;;12.57;8.32;;;;;;;30.22;17.81;101530.72;4992407;28;21782;-76
2024/03/03 06:58:44;;;;;;;12.35;8.77;;;;;;;30.28;17.71;101511.53;4954575;28;20141;-72
2024/03/03 07:01:11;;;;;;;12.68;8.82;;;;;;;30.82;17.25;101517.84;4967259;28;20125;-72
2024/03/03 07:06:23;;;;;;;10.82;7.57;;;;;;;31.33;16.90;101486.63;4971012;28;20183;-71
2024/03/03 07:08:49;;;;;;;13.48;7.93;;;;;;;30.84;16.44;101525.81;4952839;28;20049;-71
2024/03/03 07:11:15;;;;;;;11.73;6.60;;;;;;;30.80;16.18;101528.69;4990078;28;20046;-72
2024/03/03 07:13:41;;;;;;;12.18;6.70;;;;;;;30.62;16.34;101517.34;4989603;28;20030;-72
2024/03/03 07:16:07;;;;;;;15.00;7.65;;;;;;;30.53;16.05;101503.66;4973960;28;20054;-72
2024/03/03 07:18:33;;;;;;;11.95;7.50;;;;;;;31.46;16.12;101513.50;4957173;28;20034;-73
2024/03/03 07:20:59;;;;;;;15.15;11.25;;;;;;;32.24;16.12;101533.06;4950292;28;20055;-71
2024/03/03 07:23:25;;;;;;;17.17;10.27;;;;;;;31.56;16.12;101468.84;4936040;28;20437;-74
2024/03/03 07:25:51;;;;;;;17.20;10.45;;;;;;;32.11;15.94;101519.66;4947914;28;20047;-73
2024/03/03 07:28:17;;;;;;;18.05;11.20;;;;;;;31.43;15.72;101494.91;4950362;28;20044;-73
2024/03/03 07:30:43;;;;;;;18.15;12.48;;;;;;;31.94;15.54;101537.91;4948762;28;20421;-69
2024/03/03 07:33:10;;;;;;;18.20;12.18;;;;;;;32.47;15.93;101515.22;4948423;28;20050;-71
2024/03/03 07:35:36;;;;;;;26.85;14.95;;;;;;;32.15;15.18;101513.94;4968053;28;20038;-73
2024/03/03 07:38:03;;;;;;;26.80;16.33;;;;;;;31.17;15.58;101525.34;4950201;28;20053;-72
2024/03/03 07:40:33;;;;;;;25.52;17.17;;;;;;;31.69;15.99;101517.25;4932060;28;20042;-70
2024/03/03 07:42:59;;;;;;;25.25;16.30;;;;;;;32.56;15.59;101524.44;4949228;28;20051;-72
2024/03/03 07:45:28;;;;;;;22.58;13.57;;;;;;;32.76;15.04;101531.03;4965865;28;20051;-74
2024/03/03 07:47:54;;;;;;;24.58;14.18;;;;;;;32.63;15.17;101541.88;4935532;28;20132;-69
2024/03/03 07:50:21;;;;;;;24.23;15.85;;;;;;;33.10;14.83;101523.06;4951784;28;20054;-71
2024/03/03 07:52:49;;;;;;;25.95;15.93;;;;;;;32.21;14.98;101544.94;4955476;28;20469;-68
2024/03/03 07:55:15;;;;;;;25.10;14.65;;;;;;;31.75;15.11;101546.44;4967741;28;20045;-70
2024/03/03 07:57:41;;;;;;;19.50;13.60;;;;;;;32.59;14.41;101540.38;4935518;28;20457;-70
2024/03/03 08:00:08;;;;;;;22.55;13.98;;;;;;;32.53;15.02;101540.84;4969486;28;20038;-72
2024/03/03 08:03:01;;;;;;;26.08;15.02;;;;;;;33.75;15.14;101539.56;4949439;28;20050;-70
2024/03/03 08:05:34;;;;;;;24.40;15.00;;;;;;;34.51;14.83;101541.56;4948186;28;20035;-68
2024/03/03 08:08:01;;;;;;;22.42;14.52;;;;;;;35.14;14.35;101520.97;4935931;28;20051;-70
2024/03/03 08:10:28;;;;;;;23.55;16.92;;;;;;;35.67;14.10;101528.06;4952223;28;20053;-70
2024/03/03 08:12:54;;;;;;;16.73;12.82;;;;;;;35.13;13.42;101540.88;4949701;28;20146;-73
2024/03/03 08:15:21;;;;;;;19.40;11.82;;;;;;;32.52;13.36;101528.38;4954100;28;20038;-71
2024/03/03 08:17:47;;;;;;;15.43;11.40;;;;;;;32.69;13.92;101525.25;4968977;28;20074;-71
2024/03/03 08:20:14;;;;;;;17.67;10.93;;;;;;;30.80;14.10;101469.59;4935451;28;20056;-70
2024/03/03 08:22:41;;;;;;;19.60;10.68;;;;;;;30.56;14.47;101541.09;4957732;28;20580;-70
2024/03/03 08:25:09;;;;;;;20.23;12.32;;;;;;;29.57;13.82;101554.38;4949342;28;20539;-70
2024/03/03 08:27:35;;;;;;;14.50;11.23;;;;;;;28.91;14.11;101556.53;4951820;28;20469;-75
2024/03/03 08:30:05;;;;;;;19.42;12.70;;;;;;;27.57;15.12;101535.41;4980239;28;20038;-73
2024/03/03 08:32:32;;;;;;;18.52;12.38;;;;;;;28.32;16.14;101543.81;4967904;28;20129;-68
2024/03/03 08:35:01;;;;;;;18.08;11.98;;;;;;;29.29;15.87;101555.19;4961640;28;20128;-71
2024/03/03 08:37:28;;;;;;;17.15;13.18;;;;;;;28.80;14.93;101516.13;4952141;28;20449;-70
2024/03/03 08:39:56;;;;;;;18.95;13.63;;;;;;;29.40;15.76;101538.50;4976153;28;20042;-71
2024/03/03 08:42:22;;;;;;;21.33;13.88;;;;;;;30.70;16.02;101499.88;4978436;28;20046;-83
2024/03/03 08:44:48;;;;;;;24.38;15.57;;;;;;;31.63;14.73;101470.13;4963186;28;20072;-75
2024/03/03 08:47:14;;;;;;;20.20;14.73;;;;;;;32.63;14.87;101543.72;4957156;28;20066;-75
2024/03/03 08:49:40;;;;;;;24.55;17.20;;;;;;;32.30;14.65;101520.03;4964507;28;22338;-71
2024/03/03 08:52:07;;;;;;;24.05;16.92;;;;;;;31.84;13.93;101555.66;4943901;28;20042;-74
2024/03/03 08:54:33;;;;;;;27.27;18.48;;;;;;;31.15;15.02;101521.03;4962583;28;20039;-73
2024/03/03 08:56:59;;;;;;;31.67;20.73;;;;;;;29.90;14.52;101518.38;4978579;28;20038;-74
2024/03/03 08:59:25;;;;;;;21.88;15.75;;;;;;;29.42;15.14;101497.25;4936543;28;20476;-72
2024/03/03 09:01:51;;;;;;;21.38;14.57;;;;;;;29.31;15.56;101510.41;4952088;28;20050;-75
2024/03/03 09:04:17;;;;;;;21.48;13.68;;;;;;;28.92;14.49;101550.22;4962373;28;20035;-75
2024/03/03 09:06:43;;;;;;;23.38;15.57;;;;;;;27.62;14.95;101499.47;4944081;28;20049;-76
2024/03/03 09:09:10;;;;;;;22.13;13.65;;;;;;;27.64;15.21;101558.19;4938332;28;20046;-69
2024/03/03 09:11:36;;;;;;;24.63;15.18;;;;;;;27.92;15.75;101548.69;4963710;28;20145;-71
2024/03/03 09:14:02;;;;;;;24.98;17.05;;;;;;;26.77;16.05;101528.72;4965104;28;20133;-69
2024/03/03 09:16:28;;;;;;;25.27;16.15;;;;;;;26.42;16.20;101507.28;4932255;28;20065;-70
2024/03/03 09:18:54;;;;;;;23.20;14.35;;;;;;;27.45;15.94;101558.28;4973988;28;20045;-74
2024/03/03 09:21:21;;;;;;;21.92;13.55;;;;;;;26.43;17.08;101564.19;4977672;28;20037;-71
2024/03/03 09:23:48;;;;;;;21.90;14.15;;;;;;;26.76;16.36;101539.44;4973074;28;20049;-70
2024/03/03 09:26:14;;;;;;;22.58;14.35;;;;;;;27.06;16.09;101550.41;4980171;28;20050;-72
2024/03/03 09:28:43;;;;;;;21.38;13.10;;;;;;;27.73;16.90;101554.16;4962038;28;20519;-70
2024/03/03 09:31:09;;;;;;;19.70;12.98;;;;;;;28.04;15.86;101517.72;4992793;28;20046;-72
2024/03/03 09:33:35;;;;;;;20.58;14.48;;;;;;;27.49;16.71;101533.13;4977951;28;20045;-73
2024/03/03 09:36:01;;;;;;;21.42;13.45;;;;;;;26.70;16.47;101537.94;4945357;28;20507;-70
2024/03/03 09:38:27;;;;;;;22.83;14.63;;;;;;;26.59;17.78;101530.47;4961718;28;20061;-75
2024/03/03 09:40:53;;;;;;;22.42;15.40;;;;;;;28.09;16.08;101531.69;4979074;28;20140;-79
2024/03/03 09:43:26;;;;;;;27.02;15.80;;;;;;;26.68;15.74;101531.81;4973786;28;20133;-70
2024/03/03 09:45:52;;;;;;;24.52;17.08;;;;;;;26.98;17.38;101544.63;4945733;28;20136;-75
2024/03/03 09:48:20;;;;;;;28.85;17.98;;;;;;;28.82;17.22;101533.81;4962683;28;20561;-71
2024/03/03 09:50:50;;;;;;;22.95;17.33;;;;;;;28.98;16.24;101524.91;4974818;28;20046;-76
2024/03/03 09:53:18;;;;;;;27.35;16.88;;;;;;;30.94;17.01;101535.81;4959711;28;20548;-72
2024/03/03 09:55:44;;;;;;;19.05;13.43;;;;;;;32.04;16.33;101523.75;4995224;28;20042;-72
2024/03/03 09:58:11;;;;;;;17.38;11.77;;;;;;;32.20;16.10;101491.19;4958850;28;20041;-73
2024/03/03 10:00:38;;;;;;;18.35;10.43;;;;;;;30.89;14.09;101529.91;4989221;28;20120;-69
2024/03/03 10:03:07;;;;;;;15.48;11.23;;;;;;;28.33;15.36;101512.56;4995049;28;20034;-76
2024/03/03 10:05:37;;;;;;;14.63;11.52;;;;;;;30.19;16.74;101530.91;4958371;28;20046;-75
2024/03/03 10:08:03;;;;;;;16.93;12.43;;;;;;;31.52;15.84;101491.56;4993432;28;20463;-74
2024/03/03 10:10:33;;;;;;;13.45;9.93;;;;;;;33.19;15.73;101506.16;4967120;28;20042;-74
2024/03/03 10:13:02;;;;;;;9.27;4.97;;;;;;;33.16;14.04;101482.13;4976084;28;20188;-78
2024/03/03 10:15:30;;;;;;;9.35;6.47;;;;;;;32.18;14.08;101512.84;4976322;28;20289;-72
2024/03/03 10:17:56;;;;;;;17.13;10.93;;;;;;;32.57;14.71;101472.28;4970967;28;20511;-77
2024/03/03 10:20:22;;;;;;;15.25;11.25;;;;;;;31.53;14.17;101499.53;4989261;28;20120;-75
2024/03/03 10:22:51;;;;;;;15.85;10.88;;;;;;;28.13;14.41;101521.72;4988399;28;20046;-78
2024/03/03 10:25:30;;;;;;;16.38;11.60;;;;;;;25.40;15.98;101528.78;4961599;28;20099;-77
2024/03/03 10:28:14;;;;;;;16.13;10.75;;;;;;;23.61;16.70;101526.97;4978103;28;20046;-77
2024/03/03 10:30:40;;;;;;;18.42;12.27;;;;;;;21.65;17.84;101497.81;4992452;28;20041;-76
2024/03/03 10:33:08;;;;;;;16.70;11.27;;;;;;;19.69;18.83;101535.84;4993195;28;20042;-76
2024/03/03 10:35:34;;;;;;;20.13;11.93;;;;;;;18.08;19.98;101463.75;4974151;28;20089;-76
2024/03/03 10:38:01;;;;;;;18.02;12.13;;;;;;;18.05;20.41;101535.81;4972183;28;20037;-76
2024/03/03 10:40:28;;;;;;;21.55;13.40;;;;;;;16.69;20.56;101519.50;4975936;28;20057;-76
2024/03/03 10:42:55;;;;;;;19.73;12.32;;;;;;;15.85;22.33;101554.00;4948655;28;20034;-76
2024/03/03 10:45:22;;;;;;;23.65;13.68;;;;;;;15.32;22.94;101527.91;4967649;28;20046;-75
2024/03/03 10:47:51;;;;;;;23.38;14.60;;;;;;;14.52;23.34;101557.50;4978741;28;20484;-75
2024/03/03 10:50:22;;;;;;;20.83;12.32;;;;;;;13.74;23.82;101542.31;4992532;28;20034;-74
2024/03/03 10:52:52;;;;;;;21.63;11.50;;;;;;;13.41;24.99;101531.66;4974422;28;20046;-74
2024/03/03 10:55:24;;;;;;;16.58;10.10;;;;;;;12.90;24.82;101529.50;4961184;28;20042;-75
2024/03/03 10:57:54;;;;;;;23.15;12.25;;;;;;;12.52;25.32;101521.28;4969745;28;20050;-75
2024/03/03 11:00:24;;;;;;;21.02;12.25;;;;;;;12.13;26.61;101558.28;4972518;28;20558;-76
2024/03/03 11:02:56;;;;;;;23.80;12.82;;;;;;;11.60;27.12;101484.50;4974920;28;20046;-75
2024/03/03 11:05:23;;;;;;;20.13;12.68;;;;;;;11.66;27.12;101541.06;4959781;28;20520;-77
2024/03/03 11:07:50;;;;;;;25.00;14.02;;;;;;;11.38;27.47;101553.69;4989086;28;20048;-75
2024/03/03 11:10:17;;;;;;;18.42;11.80;;;;;;;10.95;27.96;101548.66;4956570;28;20107;-77
2024/03/03 11:12:49;;;;;;;21.23;12.23;;;;;;;9.99;28.07;101512.09;4952767;28;20074;-76
2024/03/03 11:15:20;;;;;;;22.42;13.40;;;;;;;9.82;29.40;101541.19;4975553;28;20065;-78